createdAt,value
2018-05-10T00:00:06.036Z,75.04
2018-05-10T00:01:59.036Z,74.75
2018-05-10T00:02:59.102Z,74.65
2018-05-10T00:04:52.105Z,74.27
2018-05-10T00:05:52.163Z,74.46
2018-05-10T00:07:45.164Z,74.94
2018-05-10T00:08:45.231Z,75.32
2018-05-10T00:10:38.231Z,75.23
2018-05-10T00:11:38.291Z,75.04
2018-05-10T00:13:31.294Z,75.13
2018-05-10T00:14:31.353Z,75.42
2018-05-10T00:16:24.362Z,75.13
2018-05-10T00:17:24.424Z,76.00
2018-05-10T00:19:17.428Z,75.13
2018-05-10T00:20:17.485Z,75.71
2018-05-10T00:22:10.484Z,75.71
2018-05-10T00:23:10.546Z,75.81
2018-05-10T00:25:03.547Z,75.23
2018-05-10T00:26:03.609Z,75.07
2018-05-10T00:27:56.607Z,75.27
2018-05-10T00:28:56.678Z,75.46
2018-05-10T00:30:49.671Z,75.56
2018-05-10T00:31:49.732Z,75.17
2018-05-10T00:33:42.735Z,75.13
2018-05-10T00:34:42.795Z,74.94
2018-05-10T00:36:35.801Z,75.13
2018-05-10T00:37:35.854Z,75.32
2018-05-10T00:39:28.865Z,75.23
2018-05-10T00:40:28.926Z,75.32
2018-05-10T00:42:21.923Z,75.42
2018-05-10T00:43:21.991Z,75.42
2018-05-10T00:45:14.990Z,75.62
2018-05-10T00:46:15.053Z,75.20
2018-05-10T00:48:08.109Z,75.20
2018-05-10T00:49:08.109Z,75.10
2018-05-10T00:51:01.112Z,76.34
2018-05-10T00:52:01.172Z,75.54
2018-05-10T00:53:54.191Z,75.35
2018-05-10T00:54:54.236Z,75.35
2018-05-10T00:56:47.229Z,75.45
2018-05-10T00:57:47.298Z,75.45
2018-05-10T00:59:40.302Z,75.25
2018-05-10T01:00:40.360Z,75.45
2018-05-10T01:02:33.351Z,75.25
2018-05-10T01:03:33.416Z,75.25
2018-05-10T01:05:26.425Z,75.02
2018-05-10T01:06:26.484Z,75.21
2018-05-10T01:08:19.479Z,74.64
2018-05-10T01:09:19.543Z,74.93
2018-05-10T01:11:12.549Z,75.12
2018-05-10T01:12:12.604Z,74.73
2018-05-10T01:14:05.612Z,75.02
2018-05-10T01:15:05.665Z,74.83
2018-05-10T01:16:58.657Z,74.64
2018-05-10T01:17:58.722Z,74.93
2018-05-10T01:19:51.723Z,74.44
2018-05-10T01:20:51.782Z,75.12
2018-05-10T01:22:44.776Z,74.83
2018-05-10T01:23:44.841Z,74.83
2018-05-10T01:25:37.842Z,75.70
2018-05-10T01:26:37.898Z,75.70
2018-05-10T01:28:30.893Z,75.40
2018-05-10T01:29:30.956Z,75.02
2018-05-10T01:31:23.966Z,75.02
2018-05-10T01:32:24.023Z,75.60
2018-05-10T01:34:17.027Z,75.31
2018-05-10T01:35:17.085Z,75.40
2018-05-10T01:37:10.088Z,75.31
2018-05-10T01:38:10.143Z,75.21
2018-05-10T01:40:03.145Z,75.15
2018-05-10T01:41:03.207Z,75.02
2018-05-10T01:42:56.199Z,75.60
2018-05-10T01:43:56.262Z,74.93
2018-05-10T01:45:49.265Z,75.02
2018-05-10T01:46:49.323Z,74.83
2018-05-10T01:48:42.322Z,75.21
2018-05-10T01:49:42.385Z,74.83
2018-05-10T01:51:35.384Z,74.83
2018-05-10T01:52:35.441Z,75.12
2018-05-10T01:54:28.446Z,75.12
2018-05-10T01:55:28.505Z,75.50
2018-05-10T01:57:21.504Z,75.60
2018-05-10T01:58:21.562Z,74.89
2018-05-10T02:00:14.570Z,74.64
2018-05-10T02:01:14.621Z,74.73
2018-05-10T02:03:07.619Z,75.12
2018-05-10T02:04:07.682Z,74.64
2018-05-10T02:06:00.690Z,74.93
2018-05-10T02:07:00.746Z,74.64
2018-05-10T02:08:53.736Z,74.83
2018-05-10T02:09:53.801Z,74.83
2018-05-10T02:11:46.801Z,74.73
2018-05-10T02:12:46.857Z,74.93
2018-05-10T02:14:39.914Z,74.73
2018-05-10T02:15:39.916Z,74.73
2018-05-10T02:17:32.918Z,74.64
2018-05-10T02:18:32.971Z,75.02
2018-05-10T02:20:25.978Z,75.02
2018-05-10T02:21:26.036Z,74.83
2018-05-10T02:23:19.029Z,74.87
2018-05-10T02:24:19.093Z,74.87
2018-05-10T02:26:12.095Z,74.83
2018-05-10T02:27:12.150Z,74.73
2018-05-10T02:29:05.151Z,74.06
2018-05-10T02:30:05.211Z,74.64
2018-05-10T02:31:58.213Z,74.64
2018-05-10T02:32:58.268Z,74.83
2018-05-10T02:34:51.282Z,74.83
2018-05-10T02:35:51.328Z,74.35
2018-05-10T02:37:44.325Z,73.87
2018-05-10T02:38:44.390Z,73.68
2018-05-10T02:40:37.388Z,74.16
2018-05-10T02:41:37.443Z,74.06
2018-05-10T02:43:30.436Z,73.97
2018-05-10T02:44:30.500Z,74.26
2018-05-10T02:46:23.504Z,74.06
2018-05-10T02:47:23.567Z,73.97
2018-05-10T02:49:16.556Z,73.87
2018-05-10T02:50:16.621Z,73.39
2018-05-10T02:52:09.626Z,73.39
2018-05-10T02:53:09.680Z,73.49
2018-05-10T02:55:02.689Z,73.49
2018-05-10T02:56:02.739Z,73.49
2018-05-10T02:57:55.739Z,73.49
2018-05-10T02:58:55.801Z,73.68
2018-05-10T03:00:48.800Z,73.49
2018-05-10T03:01:48.859Z,72.91
2018-05-10T03:03:41.857Z,72.63
2018-05-10T03:04:41.921Z,73.39
2018-05-10T03:06:34.916Z,73.10
2018-05-10T03:07:34.975Z,72.91
2018-05-10T03:09:27.964Z,72.24
2018-05-10T03:10:28.030Z,72.91
2018-05-10T03:12:21.034Z,72.72
2018-05-10T03:13:21.096Z,72.72
2018-05-10T03:15:14.100Z,72.33
2018-05-10T03:16:14.144Z,72.30
2018-05-10T03:18:07.137Z,72.01
2018-05-10T03:19:07.202Z,71.92
2018-05-10T03:21:01.712Z,71.63
2018-05-10T03:22:01.772Z,71.92
2018-05-10T03:23:54.762Z,72.11
2018-05-10T03:24:54.822Z,71.44
2018-05-10T03:26:47.829Z,72.01
2018-05-10T03:27:47.884Z,71.53
2018-05-10T03:29:40.878Z,71.21
2018-05-10T03:30:40.942Z,71.50
2018-05-10T03:32:33.943Z,71.44
2018-05-10T03:33:34.000Z,71.53
2018-05-10T03:35:27.083Z,71.44
2018-05-10T03:36:27.124Z,71.34
2018-05-10T03:38:20.049Z,71.31
2018-05-10T03:39:20.110Z,71.40
2018-05-10T03:41:13.115Z,71.31
2018-05-10T03:42:13.174Z,71.31
2018-05-10T03:44:06.167Z,71.31
2018-05-10T03:45:06.230Z,71.50
2018-05-10T03:46:59.239Z,71.44
2018-05-10T03:47:59.287Z,71.31
2018-05-10T03:49:52.284Z,71.11
2018-05-10T03:50:52.345Z,71.50
2018-05-10T03:52:45.351Z,71.02
2018-05-10T03:53:45.402Z,70.25
2018-05-10T03:55:38.417Z,71.02
2018-05-10T03:56:38.461Z,71.02
2018-05-10T03:58:31.459Z,71.02
2018-05-10T03:59:31.534Z,71.11
2018-05-10T04:01:24.523Z,71.40
2018-05-10T04:02:24.577Z,71.40
2018-05-10T04:04:17.574Z,71.78
2018-05-10T04:05:17.636Z,71.31
2018-05-10T04:07:10.633Z,71.50
2018-05-10T04:08:10.689Z,71.31
2018-05-10T04:10:03.687Z,71.40
2018-05-10T04:11:03.746Z,71.50
2018-05-10T04:12:56.749Z,71.11
2018-05-10T04:13:56.803Z,71.50
2018-05-10T04:15:49.825Z,71.21
2018-05-10T04:16:49.871Z,71.21
2018-05-10T04:18:42.858Z,72.07
2018-05-10T04:19:42.923Z,71.31
2018-05-10T04:21:36.435Z,71.02
2018-05-10T04:22:36.488Z,71.69
2018-05-10T04:24:29.485Z,71.40
2018-05-10T04:25:29.543Z,71.31
2018-05-10T04:27:22.550Z,71.31
2018-05-10T04:28:22.601Z,71.31
2018-05-10T04:30:15.599Z,72.84
2018-05-10T04:31:15.659Z,72.74
2018-05-10T04:33:08.666Z,71.88
2018-05-10T04:34:08.723Z,71.11
2018-05-10T04:36:01.734Z,71.78
2018-05-10T04:37:01.778Z,71.69
2018-05-10T04:38:54.769Z,71.98
2018-05-10T04:39:54.832Z,71.98
2018-05-10T04:41:47.840Z,71.78
2018-05-10T04:42:47.892Z,71.98
2018-05-10T04:44:40.882Z,72.17
2018-05-10T04:45:40.948Z,71.88
2018-05-10T04:47:33.952Z,71.78
2018-05-10T04:48:34.006Z,71.40
2018-05-10T04:50:26.998Z,71.69
2018-05-10T04:51:27.061Z,71.59
2018-05-10T04:53:20.063Z,71.78
2018-05-10T04:54:20.120Z,71.98
2018-05-10T04:56:13.140Z,71.69
2018-05-10T04:57:13.179Z,71.98
2018-05-10T04:59:06.171Z,71.59
2018-05-10T05:00:06.234Z,71.59
2018-05-10T05:01:59.238Z,71.78
2018-05-10T05:02:59.291Z,73.41
2018-05-10T05:04:52.289Z,73.03
2018-05-10T05:05:52.353Z,73.22
2018-05-10T05:07:45.345Z,73.70
2018-05-10T05:08:45.412Z,73.32
2018-05-10T05:10:38.399Z,73.70
2018-05-10T05:11:38.464Z,73.61
2018-05-10T05:13:31.465Z,73.61
2018-05-10T05:14:31.519Z,73.03
2018-05-10T05:16:24.532Z,73.70
2018-05-10T05:17:24.579Z,73.70
2018-05-10T05:19:17.574Z,73.99
2018-05-10T05:20:17.634Z,73.41
2018-05-10T05:22:10.635Z,73.32
2018-05-10T05:23:10.691Z,73.90
2018-05-10T05:25:03.696Z,73.61
2018-05-10T05:26:03.753Z,73.70
2018-05-10T05:27:56.753Z,73.86
2018-05-10T05:28:56.810Z,73.70
2018-05-10T05:30:49.803Z,73.66
2018-05-10T05:31:49.871Z,73.57
2018-05-10T05:33:42.868Z,73.22
2018-05-10T05:34:42.923Z,73.57
2018-05-10T05:36:35.956Z,73.32
2018-05-10T05:37:35.976Z,73.51
2018-05-10T05:39:28.973Z,73.41
2018-05-10T05:40:29.039Z,73.13
2018-05-10T05:42:22.040Z,74.08
2018-05-10T05:43:22.194Z,73.38
2018-05-10T05:45:15.086Z,73.47
2018-05-10T05:46:15.150Z,74.18
2018-05-10T05:48:08.154Z,73.90
2018-05-10T05:49:08.207Z,73.99
2018-05-10T05:51:01.207Z,74.08
2018-05-10T05:52:01.258Z,74.33
2018-05-10T05:53:54.266Z,73.76
2018-05-10T05:54:54.342Z,73.99
2018-05-10T05:56:47.331Z,73.99
2018-05-10T05:57:47.374Z,74.27
2018-05-10T05:59:40.365Z,74.08
2018-05-10T06:00:40.428Z,74.02
2018-05-10T06:02:33.442Z,74.41
2018-05-10T06:03:33.494Z,74.37
2018-05-10T06:05:26.485Z,74.51
2018-05-10T06:06:26.549Z,74.89
2018-05-10T06:08:19.553Z,75.98
2018-05-10T06:09:19.608Z,75.79
2018-05-10T06:11:12.605Z,77.59
2018-05-10T06:12:12.665Z,78.63
2018-05-10T06:14:05.671Z,79.31
2018-05-10T06:15:05.733Z,78.09
2018-05-10T06:16:58.737Z,77.11
2018-05-10T06:17:58.790Z,76.15
2018-05-10T06:19:51.785Z,75.57
2018-05-10T06:20:51.857Z,74.25
2018-05-10T06:22:44.865Z,69.88
2018-05-10T06:23:44.922Z,67.79
2018-05-10T06:25:37.920Z,65.24
2018-05-10T06:26:37.987Z,64.92
2018-05-10T06:28:31.003Z,67.11
2018-05-10T06:29:31.052Z,66.53
2018-05-10T06:31:24.063Z,68.20
2018-05-10T06:32:24.126Z,67.36
2018-05-10T06:34:17.137Z,64.31
2018-05-10T06:35:17.194Z,63.37
2018-05-10T06:37:10.205Z,71.70
2018-05-10T06:38:10.264Z,75.14
2018-05-10T06:40:03.282Z,76.51
2018-05-10T06:41:03.337Z,77.25
2018-05-10T06:42:56.349Z,78.17
2018-05-10T06:43:56.410Z,78.36
2018-05-10T06:45:49.411Z,78.94
2018-05-10T06:46:49.537Z,78.08
2018-05-10T06:48:42.999Z,78.92
2018-05-10T06:49:43.057Z,77.96
2018-05-10T06:51:36.058Z,78.08
2018-05-10T06:52:36.127Z,78.08
2018-05-10T06:54:29.132Z,78.75
2018-05-10T06:55:29.189Z,79.03
2018-05-10T06:57:22.212Z,78.69
2018-05-10T06:58:22.262Z,77.83
2018-05-10T07:00:15.280Z,78.98
2018-05-10T07:01:15.345Z,76.10
2018-05-10T07:03:08.361Z,68.36
2018-05-10T07:04:08.423Z,71.42
2018-05-10T07:06:01.417Z,74.91
2018-05-10T07:07:01.480Z,75.93
2018-05-10T07:08:54.490Z,77.59
2018-05-10T07:09:54.765Z,78.17
2018-05-10T07:11:47.560Z,78.81
2018-05-10T07:12:47.700Z,78.90
2018-05-10T07:14:40.632Z,79.15
2018-05-10T07:15:40.691Z,78.86
2018-05-10T07:17:33.709Z,79.05
2018-05-10T07:18:33.757Z,79.28
2018-05-10T07:20:26.755Z,78.96
2018-05-10T07:21:26.819Z,78.96
2018-05-10T07:23:19.830Z,78.96
2018-05-10T07:24:19.887Z,79.25
2018-05-10T07:26:12.889Z,79.40
2018-05-10T07:27:12.956Z,79.50
2018-05-10T07:29:05.989Z,79.60
2018-05-10T07:30:06.020Z,79.11
2018-05-10T07:31:59.016Z,79.88
2018-05-10T07:32:59.144Z,79.02
2018-05-10T07:34:52.091Z,78.98
2018-05-10T07:35:52.147Z,79.17
2018-05-10T07:37:45.165Z,79.40
2018-05-10T07:38:45.209Z,79.27
2018-05-10T07:40:38.212Z,79.98
2018-05-10T07:41:38.279Z,79.98
2018-05-10T07:43:31.289Z,79.65
2018-05-10T07:44:31.347Z,79.55
2018-05-10T07:46:24.353Z,79.88
2018-05-10T07:47:24.435Z,79.65
2018-05-10T07:49:17.939Z,79.79
2018-05-10T07:50:17.990Z,79.69
2018-05-10T07:52:11.046Z,79.60
2018-05-10T07:53:11.110Z,79.21
2018-05-10T07:55:04.060Z,79.05
2018-05-10T07:56:04.119Z,79.15
2018-05-10T07:57:57.148Z,79.44
2018-05-10T07:58:57.188Z,79.15
2018-05-10T08:00:50.174Z,79.19
2018-05-10T08:01:50.240Z,79.00
2018-05-10T08:03:43.246Z,78.85
2018-05-10T08:04:43.299Z,78.17
2018-05-10T08:06:36.301Z,76.76
2018-05-10T08:07:36.381Z,77.00
2018-05-10T08:09:29.405Z,74.60
2018-05-10T08:10:29.429Z,70.00
2018-05-10T08:12:22.429Z,61.24
2018-05-10T08:13:22.489Z,59.40
2018-05-10T08:15:15.508Z,59.31
2018-05-10T08:16:15.565Z,57.95
2018-05-10T08:18:08.583Z,55.22
2018-05-10T08:19:08.655Z,55.58
2018-05-10T08:21:01.641Z,56.28
2018-05-10T08:22:01.711Z,57.28
2018-05-10T08:23:54.839Z,56.37
2018-05-10T08:24:54.783Z,57.34
2018-05-10T08:26:47.788Z,56.09
2018-05-10T08:27:47.863Z,56.35
2018-05-10T08:29:40.874Z,55.11
2018-05-10T08:30:40.930Z,55.15
2018-05-10T08:32:33.937Z,54.17
2018-05-10T08:33:34.005Z,52.90
2018-05-10T08:35:27.024Z,51.64
2018-05-10T08:36:27.168Z,51.81
2018-05-10T08:38:20.128Z,50.89
2018-05-10T08:39:20.178Z,49.10
2018-05-10T08:41:13.181Z,49.95
2018-05-10T08:42:13.254Z,51.25
2018-05-10T08:44:06.269Z,52.82
2018-05-10T08:45:06.378Z,53.50
2018-05-10T08:46:59.338Z,54.73
2018-05-10T08:47:59.411Z,55.21
2018-05-10T08:49:52.475Z,54.95
2018-05-10T08:50:52.508Z,54.44
2018-05-10T08:52:45.510Z,56.18
2018-05-10T08:53:45.596Z,56.37
2018-05-10T08:55:38.613Z,55.79
2018-05-10T08:56:38.672Z,55.67
2018-05-10T08:58:31.730Z,56.61
2018-05-10T08:59:31.739Z,56.61
2018-05-10T09:01:24.754Z,57.26
2018-05-10T09:02:24.814Z,58.19
2018-05-10T09:04:17.828Z,59.52
2018-05-10T09:05:17.888Z,60.77
2018-05-10T09:07:10.895Z,65.37
2018-05-10T09:08:10.959Z,65.37
2018-05-10T09:10:03.982Z,67.68
2018-05-10T09:11:04.041Z,70.15
2018-05-10T09:12:57.048Z,67.07
2018-05-10T09:13:57.114Z,69.19
2018-05-10T09:15:50.133Z,70.44
2018-05-10T09:16:50.183Z,71.41
2018-05-10T09:18:43.720Z,73.39
2018-05-10T09:19:43.761Z,72.75
2018-05-10T09:21:36.766Z,71.50
2018-05-10T09:22:36.836Z,70.54
2018-05-10T09:24:29.845Z,69.87
2018-05-10T09:25:29.905Z,69.57
2018-05-10T09:27:22.902Z,70.83
2018-05-10T09:28:22.972Z,68.65
2018-05-10T09:30:15.991Z,70.57
2018-05-10T09:31:16.040Z,68.45
2018-05-10T09:33:09.048Z,67.97
2018-05-10T09:34:09.115Z,68.35
2018-05-10T09:36:02.153Z,68.07
2018-05-10T09:37:02.190Z,70.00
2018-05-10T09:38:55.209Z,67.88
2018-05-10T09:39:55.258Z,68.45
2018-05-10T09:41:48.266Z,69.19
2018-05-10T09:42:48.336Z,69.67
2018-05-10T09:44:41.341Z,73.49
2018-05-10T09:45:41.405Z,73.49
2018-05-10T09:47:34.416Z,73.97
2018-05-10T09:48:34.477Z,74.07
2018-05-10T09:50:27.486Z,74.84
2018-05-10T09:51:27.558Z,74.65
2018-05-10T09:53:20.549Z,75.32
2018-05-10T09:54:20.613Z,75.96
2018-05-10T09:56:13.631Z,77.11
2018-05-10T09:57:13.682Z,76.69
2018-05-10T09:59:06.703Z,77.75
2018-05-10T10:00:06.746Z,78.23
2018-05-10T10:01:59.748Z,78.33
2018-05-10T10:02:59.819Z,77.94
2018-05-10T10:04:52.828Z,78.00
2018-05-10T10:05:52.900Z,77.71
2018-05-10T10:07:45.896Z,78.15
2018-05-10T10:08:45.956Z,78.25
2018-05-10T10:10:38.980Z,78.53
2018-05-10T10:11:39.114Z,78.73
2018-05-10T10:13:32.039Z,78.63
2018-05-10T10:14:32.099Z,77.96
2018-05-10T10:16:25.105Z,78.06
2018-05-10T10:17:25.163Z,78.73
2018-05-10T10:19:18.699Z,78.25
2018-05-10T10:20:18.730Z,78.06
2018-05-10T10:22:11.734Z,78.09
2018-05-10T10:23:11.798Z,78.00
2018-05-10T10:25:04.804Z,77.81
2018-05-10T10:26:04.860Z,78.00
2018-05-10T10:27:57.857Z,77.42
2018-05-10T10:28:57.924Z,76.65
2018-05-10T10:30:50.940Z,77.33
2018-05-10T10:31:50.994Z,77.51
2018-05-10T10:33:43.995Z,77.04
2018-05-10T10:34:44.059Z,77.23
2018-05-10T10:36:37.072Z,76.94
2018-05-10T10:37:37.130Z,76.50
2018-05-10T10:39:30.169Z,76.98
2018-05-10T10:40:30.203Z,76.88
2018-05-10T10:42:23.200Z,76.75
2018-05-10T10:43:23.264Z,77.61
2018-05-10T10:45:17.318Z,77.96
2018-05-10T10:46:17.177Z,77.96
2018-05-10T10:48:10.175Z,78.53
2018-05-10T10:49:10.238Z,78.21
2018-05-10T10:51:03.243Z,78.78
2018-05-10T10:52:03.301Z,78.78
2018-05-10T10:53:56.381Z,78.50
2018-05-10T10:54:56.363Z,79.07
2018-05-10T10:56:49.401Z,78.88
2018-05-10T10:57:49.431Z,78.59
2018-05-10T10:59:42.443Z,78.59
2018-05-10T11:00:42.490Z,78.59
2018-05-10T11:02:35.487Z,78.30
2018-05-10T11:03:35.551Z,77.69
2018-05-10T11:05:28.636Z,77.73
2018-05-10T11:06:28.617Z,78.84
2018-05-10T11:08:21.612Z,77.83
2018-05-10T11:09:21.678Z,77.50
2018-05-10T11:11:14.681Z,76.64
2018-05-10T11:12:14.736Z,76.54
2018-05-10T11:14:07.752Z,76.06
2018-05-10T11:15:07.870Z,75.67
2018-05-10T11:17:00.840Z,75.71
2018-05-10T11:18:00.893Z,74.27
2018-05-10T11:19:53.900Z,74.08
2018-05-10T11:20:54.003Z,72.64
2018-05-10T11:22:46.955Z,73.21
2018-05-10T11:23:47.017Z,71.96
2018-05-10T11:25:40.019Z,73.08
2018-05-10T11:26:40.078Z,73.41
2018-05-10T11:28:33.128Z,74.46
2018-05-10T11:29:33.141Z,73.88
2018-05-10T11:31:26.150Z,73.41
2018-05-10T11:32:26.202Z,73.02
2018-05-10T11:34:19.201Z,73.54
2018-05-10T11:35:19.266Z,72.58
2018-05-10T11:37:12.273Z,69.50
2018-05-10T11:38:12.326Z,68.06
2018-05-10T11:40:05.344Z,66.27
2018-05-10T11:41:05.392Z,65.27
2018-05-10T11:42:58.393Z,61.58
2018-05-10T11:43:58.455Z,60.72
2018-05-10T11:45:51.460Z,60.24
2018-05-10T11:46:51.517Z,59.76
2018-05-10T11:48:44.522Z,59.44
2018-05-10T11:49:44.580Z,59.64
2018-05-10T11:51:37.594Z,58.87
2018-05-10T11:52:37.644Z,59.64
2018-05-10T11:54:30.640Z,58.00
2018-05-10T11:55:30.702Z,57.71
2018-05-10T11:57:23.776Z,57.71
2018-05-10T11:58:23.772Z,57.52
2018-05-10T12:00:16.772Z,58.87
2018-05-10T12:01:16.831Z,59.34
2018-05-10T12:03:09.847Z,59.16
2018-05-10T12:04:09.891Z,59.92
2018-05-10T12:06:02.923Z,57.81
2018-05-10T12:07:02.959Z,57.62
2018-05-10T12:08:55.955Z,57.71
2018-05-10T12:09:56.021Z,57.43
2018-05-10T12:11:49.028Z,57.52
2018-05-10T12:12:49.078Z,56.76
2018-05-10T12:14:42.080Z,58.07
2018-05-10T12:15:42.138Z,58.17
2018-05-10T12:17:35.141Z,57.68
2018-05-10T12:18:35.198Z,57.88
2018-05-10T12:20:28.299Z,57.59
2018-05-10T12:21:28.263Z,58.74
2018-05-10T12:23:21.259Z,58.17
2018-05-10T12:24:21.321Z,58.84
2018-05-10T12:26:14.852Z,60.18
2018-05-10T12:27:14.898Z,60.72
2018-05-10T12:29:07.898Z,61.11
2018-05-10T12:30:07.962Z,62.01
2018-05-10T12:32:00.965Z,62.96
2018-05-10T12:33:01.022Z,64.47
2018-05-10T12:34:54.021Z,65.81
2018-05-10T12:35:54.079Z,67.06
2018-05-10T12:37:47.086Z,67.16
2018-05-10T12:38:47.141Z,67.06
2018-05-10T12:40:40.157Z,68.98
2018-05-10T12:41:40.282Z,68.98
2018-05-10T12:43:33.192Z,70.61
2018-05-10T12:44:33.262Z,70.51
2018-05-10T12:46:26.256Z,71.47
2018-05-10T12:47:26.318Z,72.05
2018-05-10T12:49:19.315Z,73.68
2018-05-10T12:50:19.392Z,74.44
2018-05-10T12:52:12.390Z,74.35
2018-05-10T12:53:12.439Z,74.35
2018-05-10T12:55:05.438Z,75.02
2018-05-10T12:56:05.583Z,75.12
2018-05-10T12:57:58.513Z,75.31
2018-05-10T12:58:58.562Z,75.40
2018-05-10T13:00:51.655Z,76.46
2018-05-10T13:01:51.621Z,75.79
2018-05-10T13:03:44.614Z,76.46
2018-05-10T13:04:44.677Z,76.46
2018-05-10T13:06:37.687Z,77.23
2018-05-10T13:07:37.737Z,77.42
2018-05-10T13:09:30.730Z,77.08
2018-05-10T13:10:30.794Z,77.17
2018-05-10T13:12:23.797Z,78.19
2018-05-10T13:13:23.948Z,78.00
2018-05-10T13:15:16.916Z,78.57
2018-05-10T13:16:16.953Z,78.96
2018-05-10T13:18:09.913Z,78.86
2018-05-10T13:19:09.973Z,78.57
2018-05-10T13:21:02.971Z,78.61
2018-05-10T13:22:03.027Z,78.13
2018-05-10T13:23:56.022Z,78.42
2018-05-10T13:24:56.086Z,78.32
2018-05-10T13:26:49.596Z,78.03
2018-05-10T13:27:49.648Z,78.13
2018-05-10T13:29:43.151Z,77.08
2018-05-10T13:30:43.215Z,77.36
2018-05-10T13:32:36.233Z,77.65
2018-05-10T13:33:36.271Z,78.42
2018-05-10T13:35:29.274Z,78.00
2018-05-10T13:36:29.335Z,78.23
2018-05-10T13:38:22.344Z,78.03
2018-05-10T13:39:22.393Z,78.28
2018-05-10T13:41:15.413Z,78.77
2018-05-10T13:42:15.456Z,78.47
2018-05-10T13:44:08.445Z,77.71
2018-05-10T13:45:08.513Z,77.51
2018-05-10T13:47:01.521Z,77.80
2018-05-10T13:48:01.570Z,77.84
2018-05-10T13:49:54.568Z,77.80
2018-05-10T13:50:54.628Z,77.90
2018-05-10T13:52:47.634Z,78.32
2018-05-10T13:53:47.688Z,78.42
2018-05-10T13:55:40.681Z,78.96
2018-05-10T13:56:40.745Z,78.77
2018-05-10T13:58:33.757Z,78.86
2018-05-10T13:59:33.818Z,78.77
2018-05-10T14:01:26.835Z,79.05
2018-05-10T14:02:26.871Z,79.24
2018-05-10T14:04:19.869Z,79.72
2018-05-10T14:05:19.930Z,79.63
2018-05-10T14:07:12.931Z,79.82
2018-05-10T14:08:12.994Z,79.72
2018-05-10T14:10:05.984Z,79.72
2018-05-10T14:11:06.051Z,79.63
2018-05-10T14:12:59.044Z,79.24
2018-05-10T14:13:59.102Z,79.53
2018-05-10T14:15:52.094Z,79.53
2018-05-10T14:16:52.159Z,79.24
2018-05-10T14:18:45.159Z,78.92
2018-05-10T14:19:45.214Z,79.24
2018-05-10T14:21:38.231Z,78.92
2018-05-10T14:22:38.278Z,79.01
2018-05-10T14:24:31.271Z,78.53
2018-05-10T14:25:31.334Z,79.01
2018-05-10T14:27:24.339Z,79.11
2018-05-10T14:28:24.392Z,79.01
2018-05-10T14:30:17.412Z,78.82
2018-05-10T14:31:17.446Z,78.53
2018-05-10T14:33:10.489Z,78.63
2018-05-10T14:34:10.515Z,79.21
2018-05-10T14:36:03.493Z,78.92
2018-05-10T14:37:03.569Z,78.92
2018-05-10T14:38:56.564Z,78.63
2018-05-10T14:39:56.617Z,78.34
2018-05-10T14:41:49.628Z,79.11
2018-05-10T14:42:49.680Z,78.19
2018-05-10T14:44:42.669Z,78.86
2018-05-10T14:45:42.729Z,78.67
2018-05-10T14:47:35.732Z,78.86
2018-05-10T14:48:35.787Z,79.24
2018-05-10T14:50:28.785Z,79.14
2018-05-10T14:51:28.850Z,78.57
2018-05-10T14:53:21.881Z,78.96
2018-05-10T14:54:21.934Z,78.77
2018-05-10T14:56:14.936Z,79.34
2018-05-10T14:57:15.003Z,78.67
2018-05-10T14:59:08.018Z,78.57
2018-05-10T15:00:08.078Z,78.86
2018-05-10T15:02:01.094Z,78.61
2018-05-10T15:03:01.134Z,78.61
2018-05-10T15:04:54.130Z,78.86
2018-05-10T15:05:54.189Z,78.57
2018-05-10T15:07:47.251Z,79.09
2018-05-10T15:08:47.259Z,78.32
2018-05-10T15:10:40.255Z,78.99
2018-05-10T15:11:40.325Z,79.38
2018-05-10T15:13:33.335Z,78.70
2018-05-10T15:14:33.387Z,78.80
2018-05-10T15:16:26.386Z,78.80
2018-05-10T15:17:26.457Z,78.99
2018-05-10T15:19:19.468Z,78.90
2018-05-10T15:20:19.531Z,78.23
2018-05-10T15:22:12.556Z,78.99
2018-05-10T15:23:12.598Z,78.52
2018-05-10T15:25:05.608Z,78.99
2018-05-10T15:26:05.665Z,78.70
2018-05-10T15:27:58.698Z,78.70
2018-05-10T15:28:58.728Z,79.09
2018-05-10T15:30:51.735Z,78.52
2018-05-10T15:31:51.804Z,78.80
2018-05-10T15:33:44.809Z,79.42
2018-05-10T15:34:44.881Z,78.90
2018-05-10T15:36:37.855Z,78.90
2018-05-10T15:37:37.910Z,78.61
2018-05-10T15:39:31.424Z,78.90
2018-05-10T15:40:31.483Z,79.28
2018-05-10T15:42:24.486Z,79.19
2018-05-10T15:43:24.540Z,79.19
2018-05-10T15:45:17.534Z,79.19
2018-05-10T15:46:17.597Z,78.90
2018-05-10T15:48:10.629Z,78.80
2018-05-10T15:49:10.665Z,79.05
2018-05-10T15:51:03.660Z,78.96
2018-05-10T15:52:03.724Z,78.99
2018-05-10T15:53:56.725Z,79.09
2018-05-10T15:54:56.781Z,78.99
2018-05-10T15:56:49.778Z,79.09
2018-05-10T15:57:49.843Z,79.09
2018-05-10T15:59:42.853Z,78.90
2018-05-10T16:00:42.911Z,79.19
2018-05-10T16:02:35.920Z,79.22
2018-05-10T16:03:35.970Z,79.03
2018-05-10T16:05:28.973Z,78.84
2018-05-10T16:06:29.032Z,78.80
2018-05-10T16:08:22.039Z,78.70
2018-05-10T16:09:22.085Z,79.09
2018-05-10T16:11:15.090Z,78.70
2018-05-10T16:12:15.156Z,78.70
2018-05-10T16:14:08.178Z,79.42
2018-05-10T16:15:08.222Z,78.99
2018-05-10T16:17:01.213Z,79.19
2018-05-10T16:18:01.364Z,78.90
2018-05-10T16:19:54.285Z,79.28
2018-05-10T16:20:54.342Z,79.09
2018-05-10T16:22:47.353Z,78.84
2018-05-10T16:23:47.397Z,79.32
2018-05-10T16:25:40.389Z,78.65
2018-05-10T16:26:40.455Z,78.94
2018-05-10T16:28:33.460Z,78.94
2018-05-10T16:29:33.513Z,78.94
2018-05-10T16:31:26.519Z,79.22
2018-05-10T16:32:26.579Z,78.90
2018-05-10T16:34:19.571Z,79.19
2018-05-10T16:35:19.628Z,78.99
2018-05-10T16:37:12.623Z,79.09
2018-05-10T16:38:12.686Z,79.28
2018-05-10T16:40:05.687Z,79.38
2018-05-10T16:41:05.741Z,79.19
2018-05-10T16:42:58.765Z,78.80
2018-05-10T16:43:58.810Z,78.99
2018-05-10T16:45:51.807Z,79.86
2018-05-10T16:46:51.867Z,78.90
2018-05-10T16:48:44.881Z,78.99
2018-05-10T16:49:44.945Z,79.67
2018-05-10T16:51:37.946Z,79.28
2018-05-10T16:52:38.012Z,79.53
2018-05-10T16:54:31.014Z,79.63
2018-05-10T16:55:31.069Z,79.05
2018-05-10T16:57:24.066Z,79.44
2018-05-10T16:58:24.134Z,79.53
2018-05-10T17:00:17.133Z,79.44
2018-05-10T17:01:17.186Z,79.44
2018-05-10T17:03:10.206Z,78.28
2018-05-10T17:04:10.244Z,77.76
2018-05-10T17:06:03.248Z,76.71
2018-05-10T17:07:03.303Z,75.75
2018-05-10T17:08:56.307Z,74.12
2018-05-10T17:09:56.360Z,73.93
2018-05-10T17:11:49.355Z,73.35
2018-05-10T17:12:49.421Z,73.26
2018-05-10T17:14:42.429Z,72.17
2018-05-10T17:15:42.487Z,72.17
2018-05-10T17:17:35.482Z,69.68
2018-05-10T17:18:35.560Z,70.64
2018-05-10T17:20:28.543Z,70.98
2018-05-10T17:21:28.601Z,70.31
2018-05-10T17:23:21.601Z,70.41
2018-05-10T17:24:21.651Z,69.45
2018-05-10T17:26:15.151Z,69.80
2018-05-10T17:27:15.223Z,69.23
2018-05-10T17:29:08.215Z,69.23
2018-05-10T17:30:08.270Z,69.03
2018-05-10T17:32:01.269Z,69.60
2018-05-10T17:33:01.332Z,68.84
2018-05-10T17:34:54.336Z,69.70
2018-05-10T17:35:54.388Z,69.32
2018-05-10T17:37:47.380Z,69.60
2018-05-10T17:38:47.442Z,69.42
2018-05-10T17:40:40.444Z,69.80
2018-05-10T17:41:40.583Z,69.42
2018-05-10T17:43:33.515Z,70.18
2018-05-10T17:44:33.555Z,69.89
2018-05-10T17:46:26.560Z,69.51
2018-05-10T17:47:26.610Z,70.09
2018-05-10T17:49:19.610Z,68.84
2018-05-10T17:50:19.666Z,69.42
2018-05-10T17:52:12.658Z,69.42
2018-05-10T17:53:12.718Z,69.80
2018-05-10T17:55:05.718Z,69.70
2018-05-10T17:56:05.772Z,70.56
2018-05-10T17:57:58.762Z,70.37
2018-05-10T17:58:58.826Z,69.80
2018-05-10T18:00:51.914Z,69.60
2018-05-10T18:01:51.878Z,70.09
2018-05-10T18:03:44.896Z,69.80
2018-05-10T18:04:44.938Z,70.09
2018-05-10T18:06:37.929Z,70.09
2018-05-10T18:07:37.996Z,70.09
2018-05-10T18:09:30.990Z,70.37
2018-05-10T18:10:31.047Z,70.37
2018-05-10T18:12:24.035Z,70.18
2018-05-10T18:13:24.113Z,70.09
2018-05-10T18:15:17.100Z,70.09
2018-05-10T18:16:17.155Z,70.09
2018-05-10T18:18:10.144Z,70.09
2018-05-10T18:19:10.210Z,70.76
2018-05-10T18:21:03.212Z,70.56
2018-05-10T18:22:03.268Z,70.09
2018-05-10T18:23:56.267Z,70.56
2018-05-10T18:24:56.318Z,70.95
2018-05-10T18:26:49.812Z,71.52
2018-05-10T18:27:49.877Z,71.14
2018-05-10T18:29:42.924Z,71.14
2018-05-10T18:30:42.940Z,71.42
2018-05-10T18:32:35.937Z,71.27
2018-05-10T18:33:35.997Z,73.44